Startpagina
METAR-TAF:

METAR-TAF

Vliegvelden :

Tarawa, Kiribati

Bonriki International Airport

breedte: 01-21N, lengte: 172-55E, hoogte: 2 m

Actueel weer

Dit bericht is 23 minuten geleden gemaakt, om 02:00 UTC
Wind 11 kt uit het oostnoordoosten
Temperatuur 30°C
Vochtigheid 84%
Druk 1008 hPa
Zicht 10 km of meer
Weinig wolken op 1700 ft, Cumulonimbus.
Verspreide wolken op 1800 ft, Stapelwolken.

METAR: NGTA 270200Z 06011KT 9999 FEW017CB SCT018TCU 30/27 Q1008

Tijdstip: 16:23 (02:23 UTC)

Verwachting

Dit bericht is 3 uur en het 10 minuten geleden gemaakt, om 23:13 UTC
Verwachting geldig van 27 om 00 UTC tot 27 om 24 UTC
Wind 8 kt uit het oosten
Zicht 10 km of meer
Verspreide wolken op 1800 ft
Verspreide wolken op 4000 ft
Kans 30% :
Tijdelijke
van 27 om 03 UTC tot 27 om 18 UTC
Zicht: 5000 m
Gebroken wolken op 1500 ft
Verspreide wolken op 1700 ft, Cumulonimbus.
onweer, regen

TAF: NGTA 262313Z 2700/2724 08008KT 9999 SCT018 SCT040 PROB30 TEMPO 2703/2718 5000 TSRA BKN015 SCT017CB

Waarnemingen en weersverwachtingen van meer dan 4000 vliegvelden (METAR en TAF).

De beschikbare stations zijn de gele en rode punten op de kaart.

Ga met uw muis naar het station om de naam te zien.

Klik dan om waarnemingen en weersverwachtingen te zien.

kaart wijzigen: klik op de groene knoppen met een zwart kruis om in te zoomen, op de groene knop met een streepje om uit te zoomen of op de groene pijlen voor aangrenzende kaarten.


METAR-TAF: